»·PEaware :: N6233G KBUR-KVNY

N6233G :: KBUR-KVNY

FLIGHT INFORMATION

Flight Status: Arrived
Operator: Privately registered:
United States
More flights under this callsign
Pilot: Mark B. (9455)
Aircraft: BEECH AIRCRAFT DEBONAIR BONANZA
(BE33)
More flights by this aircraft type
Origin: KBUR Bob Hope-Burbank
United States
Destination: KVNY Van Nuys
United States
More flights between these airports :: More routes between these airports
Route: CANOG
File this flight plan on PilotEdge
Remarks: Round robin practice approaches at KVNY and KWHP
Altitude:
(Current/Filed)
4,000ft
Speed:
(Current/Filed)
160kts
Departed: 16-Feb-21 06:59 PM
Arrived: 16-Feb-21 07:42 PM
Distance/Time
Traveled:
4nm/0:43
Distance/Time
To Go:
Arrived

Flight Plot

Page will automatically refresh every two minutes.

Flight plan parsing failed; only flown route is shown


Map Options




Map Legend


Flown Route
Filed Route
Departure Airport
Arrival Airport
Navaid (VOR, NDB)
Fix

Horizontal Profiles

Position Reports

Time Latitude Longitude Heading Altitude Ground
Speed
16-Feb-21 18:47 34.196332 -118.367563 358 723ft 0kts
16-Feb-21 18:48 34.196332 -118.367563 358 723ft 0kts
16-Feb-21 18:49 34.196332 -118.367563 358 723ft 0kts
16-Feb-21 18:50 34.196332 -118.367563 358 723ft 0kts
16-Feb-21 18:51 34.196332 -118.367563 358 723ft 0kts
16-Feb-21 18:52 34.196349 -118.367562 1 723ft 1kts
16-Feb-21 18:53 34.196871 -118.364270 90 720ft 23kts
16-Feb-21 18:54 34.196692 -118.357161 160 707ft 15kts
16-Feb-21 18:55 34.194757 -118.356634 164 699ft 0kts
16-Feb-21 18:56 34.194757 -118.356634 164 699ft 0kts
16-Feb-21 18:57 34.194757 -118.356634 164 699ft 0kts
16-Feb-21 18:58 34.195338 -118.355794 343 699ft 41kts
16-Feb-21 18:59 34.209453 -118.364268 282 1211ft 98kts
16-Feb-21 19:00 34.211304 -118.390170 271 2312ft 95kts
16-Feb-21 19:01 34.215137 -118.423755 277 3309ft 116kts
16-Feb-21 19:02 34.219468 -118.460408 278 4047ft 124kts
16-Feb-21 19:03 34.223116 -118.499883 266 4394ft 123kts
16-Feb-21 19:04 34.225297 -118.526191 278 4315ft 140kts
16-Feb-21 19:05 34.225958 -118.557496 272 4161ft 153kts
16-Feb-21 19:06 34.225979 -118.592613 264 3823ft 148kts
16-Feb-21 19:07 34.209520 -118.619170 232 3901ft 117kts
16-Feb-21 19:08 34.196976 -118.651126 290 3904ft 111kts
16-Feb-21 19:09 34.221090 -118.654401 57 3905ft 109kts
16-Feb-21 19:10 34.223583 -118.619339 89 3905ft 110kts
16-Feb-21 19:11 34.223034 -118.602333 94 3890ft 112kts
16-Feb-21 19:12 34.222580 -118.583279 89 3580ft 121kts
16-Feb-21 19:13 34.222681 -118.564935 89 3070ft 109kts
16-Feb-21 19:14 34.222853 -118.540680 89 2331ft 105kts
16-Feb-21 19:15 34.222706 -118.509092 93 1625ft 107kts
16-Feb-21 19:16 34.220846 -118.488952 96 1718ft 92kts
16-Feb-21 19:17 34.218626 -118.463019 118 2143ft 86kts
16-Feb-21 19:18 34.201958 -118.436763 124 2770ft 112kts
16-Feb-21 19:19 34.186680 -118.407286 135 3561ft 109kts
16-Feb-21 19:20 34.167642 -118.423865 263 4016ft 122kts
16-Feb-21 19:21 34.170477 -118.464240 291 4011ft 119kts
16-Feb-21 19:22 34.187002 -118.499057 302 4012ft 119kts
16-Feb-21 19:23 34.195890 -118.520076 281 3971ft 122kts
16-Feb-21 19:24 34.202410 -118.541111 294 3979ft 121kts
16-Feb-21 19:25 34.209444 -118.562968 297 3994ft 120kts
16-Feb-21 19:26 34.218400 -118.587194 299 4009ft 119kts
16-Feb-21 19:27 34.221572 -118.615139 273 4016ft 118kts
16-Feb-21 19:28 34.215038 -118.647592 191 4038ft 117kts
16-Feb-21 19:29 34.208340 -118.621865 42 4045ft 117kts
16-Feb-21 19:30 34.221845 -118.603896 64 4038ft 119kts
16-Feb-21 19:31 34.223087 -118.584811 87 4016ft 121kts
16-Feb-21 19:32 34.223547 -118.564821 91 3703ft 134kts
16-Feb-21 19:33 34.223381 -118.541599 89 3271ft 140kts
16-Feb-21 19:34 34.223453 -118.516214 90 3268ft 122kts
16-Feb-21 19:35 34.229573 -118.479448 57 3198ft 110kts
16-Feb-21 19:36 34.245142 -118.446693 63 2107ft 120kts
16-Feb-21 19:37 34.260473 -118.432902 312 1594ft 95kts
16-Feb-21 19:38 34.271235 -118.443173 3 1743ft 75kts
16-Feb-21 19:39 34.272989 -118.428939 120 1458ft 78kts
16-Feb-21 19:40 34.262832 -118.417160 137 1018ft 81kts
16-Feb-21 19:41 34.257851 -118.411189 119 973ft 0kts

Navigation Log

Ident Type
Flight plan parsing failed, navigation log unavailable